sensor_id;sensor_type;location;lat;lon;timestamp;temperature;humidity
41876;DHT22;27555;50.808;4.402;2023-06-22T00:01:51;23.30;93.60
41876;DHT22;27555;50.808;4.402;2023-06-22T00:04:16;23.20;93.70
41876;DHT22;27555;50.808;4.402;2023-06-22T00:06:42;23.10;93.90
41876;DHT22;27555;50.808;4.402;2023-06-22T00:09:07;23.10;93.90
41876;DHT22;27555;50.808;4.402;2023-06-22T00:11:33;23.10;93.90
41876;DHT22;27555;50.808;4.402;2023-06-22T00:14:02;23.20;93.80
41876;DHT22;27555;50.808;4.402;2023-06-22T00:16:28;23.30;93.40
41876;DHT22;27555;50.808;4.402;2023-06-22T00:18:54;23.40;93.20
41876;DHT22;27555;50.808;4.402;2023-06-22T00:21:19;23.50;93.00
41876;DHT22;27555;50.808;4.402;2023-06-22T00:23:46;23.50;93.00
41876;DHT22;27555;50.808;4.402;2023-06-22T00:26:13;23.40;93.20
41876;DHT22;27555;50.808;4.402;2023-06-22T00:28:38;23.20;93.40
41876;DHT22;27555;50.808;4.402;2023-06-22T00:31:04;23.00;93.70
41876;DHT22;27555;50.808;4.402;2023-06-22T00:33:29;23.10;93.70
41876;DHT22;27555;50.808;4.402;2023-06-22T00:35:55;22.90;93.90
41876;DHT22;27555;50.808;4.402;2023-06-22T00:38:21;23.10;93.70
41876;DHT22;27555;50.808;4.402;2023-06-22T00:40:46;23.10;93.70
41876;DHT22;27555;50.808;4.402;2023-06-22T00:43:12;23.30;93.60
41876;DHT22;27555;50.808;4.402;2023-06-22T00:45:38;23.30;93.40
41876;DHT22;27555;50.808;4.402;2023-06-22T00:48:03;23.20;92.90
41876;DHT22;27555;50.808;4.402;2023-06-22T00:50:31;23.10;93.20
41876;DHT22;27555;50.808;4.402;2023-06-22T00:53:07;23.10;93.20
41876;DHT22;27555;50.808;4.402;2023-06-22T00:55:43;23.10;93.00
41876;DHT22;27555;50.808;4.402;2023-06-22T00:58:11;23.20;93.00
41876;DHT22;27555;50.808;4.402;2023-06-22T01:00:38;23.30;92.70
41876;DHT22;27555;50.808;4.402;2023-06-22T01:03:04;23.30;92.60
41876;DHT22;27555;50.808;4.402;2023-06-22T01:05:33;23.30;92.70
41876;DHT22;27555;50.808;4.402;2023-06-22T01:13:57;22.60;93.80
41876;DHT22;27555;50.808;4.402;2023-06-22T01:16:25;22.50;94.00
41876;DHT22;27555;50.808;4.402;2023-06-22T01:18:54;22.60;93.90
41876;DHT22;27555;50.808;4.402;2023-06-22T01:21:22;22.70;93.90
41876;DHT22;27555;50.808;4.402;2023-06-22T01:29:04;22.90;93.40
41876;DHT22;27555;50.808;4.402;2023-06-22T01:31:31;22.80;93.60
41876;DHT22;27555;50.808;4.402;2023-06-22T01:34:01;22.80;93.60
41876;DHT22;27555;50.808;4.402;2023-06-22T01:36:28;22.80;93.50
41876;DHT22;27555;50.808;4.402;2023-06-22T01:38:55;22.90;93.70
41876;DHT22;27555;50.808;4.402;2023-06-22T01:41:24;22.90;93.60
41876;DHT22;27555;50.808;4.402;2023-06-22T01:43:50;22.80;93.70
41876;DHT22;27555;50.808;4.402;2023-06-22T01:46:18;22.80;93.80
41876;DHT22;27555;50.808;4.402;2023-06-22T01:48:45;22.90;93.60
41876;DHT22;27555;50.808;4.402;2023-06-22T01:51:11;22.80;93.70
41876;DHT22;27555;50.808;4.402;2023-06-22T01:53:37;22.60;93.80
41876;DHT22;27555;50.808;4.402;2023-06-22T01:56:03;22.60;94.10
41876;DHT22;27555;50.808;4.402;2023-06-22T01:58:29;22.40;94.30
41876;DHT22;27555;50.808;4.402;2023-06-22T02:01:07;22.40;94.50
41876;DHT22;27555;50.808;4.402;2023-06-22T02:03:50;22.50;94.50
41876;DHT22;27555;50.808;4.402;2023-06-22T02:06:23;22.40;94.50
41876;DHT22;27555;50.808;4.402;2023-06-22T02:08:53;22.30;94.50
41876;DHT22;27555;50.808;4.402;2023-06-22T02:11:21;22.40;94.60
41876;DHT22;27555;50.808;4.402;2023-06-22T02:13:48;22.30;94.60
41876;DHT22;27555;50.808;4.402;2023-06-22T02:16:15;22.30;94.70
41876;DHT22;27555;50.808;4.402;2023-06-22T02:18:48;22.30;94.90
41876;DHT22;27555;50.808;4.402;2023-06-22T02:21:18;22.40;94.90
41876;DHT22;27555;50.808;4.402;2023-06-22T02:23:44;22.40;94.60
41876;DHT22;27555;50.808;4.402;2023-06-22T02:26:09;22.50;94.60
41876;DHT22;27555;50.808;4.402;2023-06-22T02:28:35;22.20;95.00
41876;DHT22;27555;50.808;4.402;2023-06-22T02:31:01;22.20;95.10
41876;DHT22;27555;50.808;4.402;2023-06-22T02:33:26;22.20;95.10
41876;DHT22;27555;50.808;4.402;2023-06-22T02:35:52;22.20;95.20
41876;DHT22;27555;50.808;4.402;2023-06-22T02:38:18;22.20;95.10
41876;DHT22;27555;50.808;4.402;2023-06-22T02:40:45;22.10;95.20
41876;DHT22;27555;50.808;4.402;2023-06-22T02:43:11;22.00;95.30
41876;DHT22;27555;50.808;4.402;2023-06-22T02:45:36;22.20;95.20
41876;DHT22;27555;50.808;4.402;2023-06-22T02:48:02;22.20;95.10
41876;DHT22;27555;50.808;4.402;2023-06-22T02:50:28;22.10;95.30
41876;DHT22;27555;50.808;4.402;2023-06-22T02:52:53;22.00;95.40
41876;DHT22;27555;50.808;4.402;2023-06-22T02:55:19;22.00;95.70
41876;DHT22;27555;50.808;4.402;2023-06-22T02:57:44;22.00;95.80
41876;DHT22;27555;50.808;4.402;2023-06-22T03:00:12;21.80;96.00
41876;DHT22;27555;50.808;4.402;2023-06-22T03:02:48;21.80;96.10
41876;DHT22;27555;50.808;4.402;2023-06-22T03:05:14;21.80;96.10
41876;DHT22;27555;50.808;4.402;2023-06-22T03:07:41;21.80;96.00
41876;DHT22;27555;50.808;4.402;2023-06-22T03:10:11;21.90;95.80
41876;DHT22;27555;50.808;4.402;2023-06-22T03:12:38;21.90;95.80
41876;DHT22;27555;50.808;4.402;2023-06-22T03:15:08;21.90;95.70
41876;DHT22;27555;50.808;4.402;2023-06-22T03:17:34;21.90;95.80
41876;DHT22;27555;50.808;4.402;2023-06-22T03:20:01;21.80;95.90
41876;DHT22;27555;50.808;4.402;2023-06-22T03:22:26;21.80;95.80
41876;DHT22;27555;50.808;4.402;2023-06-22T03:24:52;21.80;95.90
41876;DHT22;27555;50.808;4.402;2023-06-22T03:27:17;21.80;96.00
41876;DHT22;27555;50.808;4.402;2023-06-22T03:29:44;21.80;96.10
41876;DHT22;27555;50.808;4.402;2023-06-22T03:32:10;21.80;96.20
41876;DHT22;27555;50.808;4.402;2023-06-22T03:34:35;21.80;96.30
41876;DHT22;27555;50.808;4.402;2023-06-22T03:37:01;21.90;96.10
41876;DHT22;27555;50.808;4.402;2023-06-22T03:39:27;21.90;96.00
41876;DHT22;27555;50.808;4.402;2023-06-22T03:41:52;22.00;96.00
41876;DHT22;27555;50.808;4.402;2023-06-22T03:44:18;22.10;95.80
41876;DHT22;27555;50.808;4.402;2023-06-22T03:46:44;22.20;95.60
41876;DHT22;27555;50.808;4.402;2023-06-22T03:49:10;22.10;95.60
41876;DHT22;27555;50.808;4.402;2023-06-22T03:51:35;22.20;95.40
41876;DHT22;27555;50.808;4.402;2023-06-22T03:54:01;22.20;95.30
41876;DHT22;27555;50.808;4.402;2023-06-22T03:56:26;22.20;95.30
41876;DHT22;27555;50.808;4.402;2023-06-22T03:58:52;22.20;95.30
41876;DHT22;27555;50.808;4.402;2023-06-22T04:01:18;22.10;95.50
41876;DHT22;27555;50.808;4.402;2023-06-22T04:03:44;22.20;95.70
41876;DHT22;27555;50.808;4.402;2023-06-22T04:06:10;22.10;95.60
41876;DHT22;27555;50.808;4.402;2023-06-22T04:08:35;22.10;95.60
41876;DHT22;27555;50.808;4.402;2023-06-22T04:11:01;22.20;95.50
41876;DHT22;27555;50.808;4.402;2023-06-22T04:13:26;22.20;95.50
41876;DHT22;27555;50.808;4.402;2023-06-22T04:15:52;22.10;95.60
41876;DHT22;27555;50.808;4.402;2023-06-22T04:18:17;22.20;95.60
41876;DHT22;27555;50.808;4.402;2023-06-22T04:20:43;22.30;95.40
41876;DHT22;27555;50.808;4.402;2023-06-22T04:23:12;22.30;95.60
41876;DHT22;27555;50.808;4.402;2023-06-22T04:25:39;22.30;96.10
41876;DHT22;27555;50.808;4.402;2023-06-22T04:28:04;22.10;96.30
41876;DHT22;27555;50.808;4.402;2023-06-22T04:30:31;22.00;96.30
41876;DHT22;27555;50.808;4.402;2023-06-22T04:32:57;22.10;96.10
41876;DHT22;27555;50.808;4.402;2023-06-22T04:35:24;21.90;96.50
41876;DHT22;27555;50.808;4.402;2023-06-22T04:37:49;21.90;96.60
41876;DHT22;27555;50.808;4.402;2023-06-22T04:40:15;21.90;96.60
41876;DHT22;27555;50.808;4.402;2023-06-22T04:42:41;21.90;96.60
41876;DHT22;27555;50.808;4.402;2023-06-22T04:45:17;21.90;96.90
41876;DHT22;27555;50.808;4.402;2023-06-22T04:47:43;21.90;96.70
41876;DHT22;27555;50.808;4.402;2023-06-22T04:50:13;21.90;96.90
41876;DHT22;27555;50.808;4.402;2023-06-22T04:52:39;21.90;97.10
41876;DHT22;27555;50.808;4.402;2023-06-22T04:55:05;21.90;97.50
41876;DHT22;27555;50.808;4.402;2023-06-22T04:57:31;21.90;97.20
41876;DHT22;27555;50.808;4.402;2023-06-22T05:00:00;21.80;97.60
41876;DHT22;27555;50.808;4.402;2023-06-22T05:02:40;21.70;98.10
41876;DHT22;27555;50.808;4.402;2023-06-22T05:05:06;21.70;98.80
41876;DHT22;27555;50.808;4.402;2023-06-22T05:07:36;21.80;99.80
41876;DHT22;27555;50.808;4.402;2023-06-22T05:10:05;21.80;99.90
41876;DHT22;27555;50.808;4.402;2023-06-22T05:12:30;21.70;99.90
41876;DHT22;27555;50.808;4.402;2023-06-22T05:14:56;21.60;99.90
41876;DHT22;27555;50.808;4.402;2023-06-22T05:17:22;21.50;99.90
41876;DHT22;27555;50.808;4.402;2023-06-22T05:19:48;21.40;99.90
41876;DHT22;27555;50.808;4.402;2023-06-22T05:22:16;21.40;99.90
41876;DHT22;27555;50.808;4.402;2023-06-22T05:24:43;21.30;99.90
41876;DHT22;27555;50.808;4.402;2023-06-22T05:27:09;21.30;99.90
41876;DHT22;27555;50.808;4.402;2023-06-22T05:29:36;21.30;99.90
41876;DHT22;27555;50.808;4.402;2023-06-22T05:32:03;21.20;99.90
41876;DHT22;27555;50.808;4.402;2023-06-22T05:34:28;21.20;99.90
41876;DHT22;27555;50.808;4.402;2023-06-22T05:36:54;21.30;99.90
41876;DHT22;27555;50.808;4.402;2023-06-22T05:39:19;21.40;99.90
41876;DHT22;27555;50.808;4.402;2023-06-22T05:41:46;21.50;99.90
41876;DHT22;27555;50.808;4.402;2023-06-22T05:44:11;21.60;99.90
41876;DHT22;27555;50.808;4.402;2023-06-22T05:46:40;21.70;99.90
41876;DHT22;27555;50.808;4.402;2023-06-22T05:49:09;21.70;99.90
41876;DHT22;27555;50.808;4.402;2023-06-22T05:51:35;21.70;99.90
41876;DHT22;27555;50.808;4.402;2023-06-22T05:54:01;21.80;99.90
41876;DHT22;27555;50.808;4.402;2023-06-22T05:56:26;21.80;99.90
41876;DHT22;27555;50.808;4.402;2023-06-22T05:58:53;21.70;99.90
41876;DHT22;27555;50.808;4.402;2023-06-22T06:01:18;21.60;99.90
41876;DHT22;27555;50.808;4.402;2023-06-22T06:03:44;21.60;99.90
41876;DHT22;27555;50.808;4.402;2023-06-22T06:06:10;21.60;99.90
41876;DHT22;27555;50.808;4.402;2023-06-22T06:08:39;21.60;99.90
41876;DHT22;27555;50.808;4.402;2023-06-22T06:11:05;21.70;99.90
41876;DHT22;27555;50.808;4.402;2023-06-22T06:13:30;21.70;99.90
41876;DHT22;27555;50.808;4.402;2023-06-22T06:15:56;21.70;99.90
41876;DHT22;27555;50.808;4.402;2023-06-22T06:18:23;21.80;99.90
41876;DHT22;27555;50.808;4.402;2023-06-22T06:20:48;21.80;99.90
41876;DHT22;27555;50.808;4.402;2023-06-22T06:23:14;21.90;99.90
41876;DHT22;27555;50.808;4.402;2023-06-22T06:25:40;22.00;99.90
41876;DHT22;27555;50.808;4.402;2023-06-22T06:28:05;22.20;99.90
41876;DHT22;27555;50.808;4.402;2023-06-22T06:30:31;22.30;99.90
41876;DHT22;27555;50.808;4.402;2023-06-22T06:32:57;22.50;99.90
41876;DHT22;27555;50.808;4.402;2023-06-22T06:35:23;22.50;99.90
41876;DHT22;27555;50.808;4.402;2023-06-22T06:37:49;22.40;99.90
41876;DHT22;27555;50.808;4.402;2023-06-22T06:40:17;22.20;99.90
41876;DHT22;27555;50.808;4.402;2023-06-22T06:42:44;22.20;99.90
41876;DHT22;27555;50.808;4.402;2023-06-22T06:47:36;22.30;99.90
41876;DHT22;27555;50.808;4.402;2023-06-22T06:50:03;22.30;99.90
41876;DHT22;27555;50.808;4.402;2023-06-22T06:52:29;22.40;99.90
41876;DHT22;27555;50.808;4.402;2023-06-22T06:54:55;22.20;99.90
41876;DHT22;27555;50.808;4.402;2023-06-22T06:57:20;22.40;99.90
41876;DHT22;27555;50.808;4.402;2023-06-22T06:59:46;22.50;99.90
41876;DHT22;27555;50.808;4.402;2023-06-22T07:02:12;22.50;99.90
41876;DHT22;27555;50.808;4.402;2023-06-22T07:04:37;22.70;99.90
41876;DHT22;27555;50.808;4.402;2023-06-22T07:07:03;22.80;99.90
41876;DHT22;27555;50.808;4.402;2023-06-22T07:09:29;22.90;99.90
41876;DHT22;27555;50.808;4.402;2023-06-22T07:11:54;23.00;99.90
41876;DHT22;27555;50.808;4.402;2023-06-22T07:14:20;23.10;99.90
41876;DHT22;27555;50.808;4.402;2023-06-22T07:16:45;23.10;99.90
41876;DHT22;27555;50.808;4.402;2023-06-22T07:19:11;23.10;99.90
41876;DHT22;27555;50.808;4.402;2023-06-22T07:21:38;23.30;99.90
41876;DHT22;27555;50.808;4.402;2023-06-22T07:24:05;23.90;99.90
41876;DHT22;27555;50.808;4.402;2023-06-22T07:26:31;24.20;99.90
41876;DHT22;27555;50.808;4.402;2023-06-22T07:28:57;24.60;99.90
41876;DHT22;27555;50.808;4.402;2023-06-22T07:31:26;24.40;99.90
41876;DHT22;27555;50.808;4.402;2023-06-22T07:33:52;24.10;99.90
41876;DHT22;27555;50.808;4.402;2023-06-22T07:36:18;24.00;99.90
41876;DHT22;27555;50.808;4.402;2023-06-22T07:38:43;24.10;99.90
41876;DHT22;27555;50.808;4.402;2023-06-22T07:41:09;23.80;99.90
41876;DHT22;27555;50.808;4.402;2023-06-22T07:43:35;23.70;99.90
41876;DHT22;27555;50.808;4.402;2023-06-22T07:46:03;23.50;99.90
41876;DHT22;27555;50.808;4.402;2023-06-22T07:48:29;23.30;99.90
41876;DHT22;27555;50.808;4.402;2023-06-22T07:50:55;23.10;99.90
41876;DHT22;27555;50.808;4.402;2023-06-22T07:53:21;22.90;99.90
41876;DHT22;27555;50.808;4.402;2023-06-22T07:55:48;22.60;99.90
41876;DHT22;27555;50.808;4.402;2023-06-22T07:58:14;22.40;99.90
41876;DHT22;27555;50.808;4.402;2023-06-22T08:00:41;22.50;99.90
41876;DHT22;27555;50.808;4.402;2023-06-22T08:03:06;22.50;99.90
41876;DHT22;27555;50.808;4.402;2023-06-22T08:05:32;22.50;99.90
41876;DHT22;27555;50.808;4.402;2023-06-22T08:07:58;22.50;99.90
41876;DHT22;27555;50.808;4.402;2023-06-22T08:10:24;22.50;99.90
41876;DHT22;27555;50.808;4.402;2023-06-22T08:12:49;22.60;99.90
41876;DHT22;27555;50.808;4.402;2023-06-22T08:15:15;22.60;99.90
41876;DHT22;27555;50.808;4.402;2023-06-22T08:17:41;22.50;99.90
41876;DHT22;27555;50.808;4.402;2023-06-22T08:20:07;22.60;99.90
41876;DHT22;27555;50.808;4.402;2023-06-22T08:22:40;22.70;99.90
41876;DHT22;27555;50.808;4.402;2023-06-22T08:25:07;22.60;99.90
41876;DHT22;27555;50.808;4.402;2023-06-22T08:27:32;22.40;99.90
41876;DHT22;27555;50.808;4.402;2023-06-22T08:29:59;22.20;99.90
41876;DHT22;27555;50.808;4.402;2023-06-22T08:32:28;22.10;99.90
41876;DHT22;27555;50.808;4.402;2023-06-22T08:34:55;22.10;99.90
41876;DHT22;27555;50.808;4.402;2023-06-22T08:37:21;22.10;99.90
41876;DHT22;27555;50.808;4.402;2023-06-22T08:39:59;22.10;99.90
41876;DHT22;27555;50.808;4.402;2023-06-22T08:42:25;22.30;99.90
41876;DHT22;27555;50.808;4.402;2023-06-22T08:44:51;22.40;99.90
41876;DHT22;27555;50.808;4.402;2023-06-22T08:47:16;22.50;99.90
41876;DHT22;27555;50.808;4.402;2023-06-22T08:49:42;22.70;99.90
41876;DHT22;27555;50.808;4.402;2023-06-22T08:52:08;22.70;99.90
41876;DHT22;27555;50.808;4.402;2023-06-22T08:54:33;22.70;99.90
41876;DHT22;27555;50.808;4.402;2023-06-22T08:57:01;22.80;99.90
41876;DHT22;27555;50.808;4.402;2023-06-22T08:59:27;22.90;99.90
41876;DHT22;27555;50.808;4.402;2023-06-22T09:01:52;22.80;99.90
41876;DHT22;27555;50.808;4.402;2023-06-22T09:04:18;22.60;99.90
41876;DHT22;27555;50.808;4.402;2023-06-22T09:06:44;22.70;99.90
41876;DHT22;27555;50.808;4.402;2023-06-22T09:09:12;22.80;99.90
41876;DHT22;27555;50.808;4.402;2023-06-22T09:11:38;23.00;99.90
41876;DHT22;27555;50.808;4.402;2023-06-22T09:14:03;23.00;99.90
41876;DHT22;27555;50.808;4.402;2023-06-22T09:16:29;22.90;99.90
41876;DHT22;27555;50.808;4.402;2023-06-22T09:18:55;22.90;99.90
41876;DHT22;27555;50.808;4.402;2023-06-22T09:21:21;23.00;99.90
41876;DHT22;27555;50.808;4.402;2023-06-22T09:23:47;23.10;99.90
41876;DHT22;27555;50.808;4.402;2023-06-22T09:26:19;23.00;99.90
41876;DHT22;27555;50.808;4.402;2023-06-22T09:28:45;22.90;99.90
41876;DHT22;27555;50.808;4.402;2023-06-22T09:31:11;22.90;99.90
41876;DHT22;27555;50.808;4.402;2023-06-22T09:33:37;22.70;99.90
41876;DHT22;27555;50.808;4.402;2023-06-22T09:36:06;22.60;99.90
41876;DHT22;27555;50.808;4.402;2023-06-22T09:38:38;22.30;99.90
41876;DHT22;27555;50.808;4.402;2023-06-22T09:41:04;21.80;99.90
41876;DHT22;27555;50.808;4.402;2023-06-22T09:43:31;21.60;99.90
41876;DHT22;27555;50.808;4.402;2023-06-22T09:45:57;20.90;99.90
41876;DHT22;27555;50.808;4.402;2023-06-22T09:48:23;20.80;99.90
41876;DHT22;27555;50.808;4.402;2023-06-22T09:50:49;20.70;99.90
41876;DHT22;27555;50.808;4.402;2023-06-22T09:53:14;20.60;99.90
41876;DHT22;27555;50.808;4.402;2023-06-22T09:55:40;20.60;99.90
41876;DHT22;27555;50.808;4.402;2023-06-22T09:58:06;20.30;99.90
41876;DHT22;27555;50.808;4.402;2023-06-22T10:00:31;20.30;99.90
41876;DHT22;27555;50.808;4.402;2023-06-22T10:02:57;20.30;99.90
41876;DHT22;27555;50.808;4.402;2023-06-22T10:05:23;20.20;99.90
41876;DHT22;27555;50.808;4.402;2023-06-22T10:07:50;20.00;99.90
41876;DHT22;27555;50.808;4.402;2023-06-22T10:10:15;19.70;99.90
41876;DHT22;27555;50.808;4.402;2023-06-22T10:12:43;19.50;99.90
41876;DHT22;27555;50.808;4.402;2023-06-22T10:15:10;19.40;99.90
41876;DHT22;27555;50.808;4.402;2023-06-22T10:17:35;19.50;99.90
41876;DHT22;27555;50.808;4.402;2023-06-22T10:20:01;19.50;99.90
41876;DHT22;27555;50.808;4.402;2023-06-22T10:22:37;19.50;99.90
41876;DHT22;27555;50.808;4.402;2023-06-22T10:25:03;19.50;99.90
41876;DHT22;27555;50.808;4.402;2023-06-22T10:27:28;19.50;99.90
41876;DHT22;27555;50.808;4.402;2023-06-22T10:29:54;19.60;99.90
41876;DHT22;27555;50.808;4.402;2023-06-22T10:32:20;19.30;99.90
41876;DHT22;27555;50.808;4.402;2023-06-22T10:34:45;19.20;99.90
41876;DHT22;27555;50.808;4.402;2023-06-22T10:37:11;19.10;99.90
41876;DHT22;27555;50.808;4.402;2023-06-22T10:39:36;19.10;99.90
41876;DHT22;27555;50.808;4.402;2023-06-22T10:42:02;19.10;99.90
41876;DHT22;27555;50.808;4.402;2023-06-22T10:44:28;18.90;99.90
41876;DHT22;27555;50.808;4.402;2023-06-22T10:46:53;18.90;99.90
41876;DHT22;27555;50.808;4.402;2023-06-22T10:49:19;19.00;99.90
41876;DHT22;27555;50.808;4.402;2023-06-22T10:51:44;18.80;99.90
41876;DHT22;27555;50.808;4.402;2023-06-22T10:54:10;18.70;99.90
41876;DHT22;27555;50.808;4.402;2023-06-22T10:56:35;18.80;99.90
41876;DHT22;27555;50.808;4.402;2023-06-22T10:59:01;18.80;99.90
41876;DHT22;27555;50.808;4.402;2023-06-22T11:01:27;18.90;99.90
41876;DHT22;27555;50.808;4.402;2023-06-22T11:03:53;19.00;99.90
41876;DHT22;27555;50.808;4.402;2023-06-22T11:06:18;19.00;99.90
41876;DHT22;27555;50.808;4.402;2023-06-22T11:08:44;19.00;99.90
41876;DHT22;27555;50.808;4.402;2023-06-22T11:11:10;19.10;99.90
41876;DHT22;27555;50.808;4.402;2023-06-22T11:13:36;19.00;99.90
41876;DHT22;27555;50.808;4.402;2023-06-22T11:16:01;19.10;99.90
41876;DHT22;27555;50.808;4.402;2023-06-22T11:18:27;19.10;99.90
41876;DHT22;27555;50.808;4.402;2023-06-22T11:20:53;19.20;99.90
41876;DHT22;27555;50.808;4.402;2023-06-22T11:23:18;19.40;99.90
41876;DHT22;27555;50.808;4.402;2023-06-22T11:25:44;19.60;99.90
41876;DHT22;27555;50.808;4.402;2023-06-22T11:28:11;19.80;99.90
41876;DHT22;27555;50.808;4.402;2023-06-22T11:30:37;20.10;99.90
41876;DHT22;27555;50.808;4.402;2023-06-22T11:33:02;20.30;99.90
41876;DHT22;27555;50.808;4.402;2023-06-22T11:35:28;20.30;99.90
41876;DHT22;27555;50.808;4.402;2023-06-22T11:37:54;20.30;99.90
41876;DHT22;27555;50.808;4.402;2023-06-22T11:40:21;20.30;99.90
41876;DHT22;27555;50.808;4.402;2023-06-22T11:42:48;20.30;99.90
41876;DHT22;27555;50.808;4.402;2023-06-22T11:45:13;20.60;99.90
41876;DHT22;27555;50.808;4.402;2023-06-22T11:47:39;20.60;99.90
41876;DHT22;27555;50.808;4.402;2023-06-22T11:50:05;20.30;99.90
41876;DHT22;27555;50.808;4.402;2023-06-22T11:52:31;20.10;99.90
41876;DHT22;27555;50.808;4.402;2023-06-22T11:54:57;20.20;99.90
41876;DHT22;27555;50.808;4.402;2023-06-22T11:57:24;20.20;99.90
41876;DHT22;27555;50.808;4.402;2023-06-22T11:59:50;20.30;99.90
41876;DHT22;27555;50.808;4.402;2023-06-22T12:02:15;20.00;99.90
41876;DHT22;27555;50.808;4.402;2023-06-22T12:04:41;19.90;99.90
41876;DHT22;27555;50.808;4.402;2023-06-22T12:07:06;19.80;99.90
41876;DHT22;27555;50.808;4.402;2023-06-22T12:09:32;19.60;99.90
41876;DHT22;27555;50.808;4.402;2023-06-22T12:11:58;19.60;99.90
41876;DHT22;27555;50.808;4.402;2023-06-22T12:14:23;19.80;99.90
41876;DHT22;27555;50.808;4.402;2023-06-22T12:16:49;19.60;99.90
41876;DHT22;27555;50.808;4.402;2023-06-22T12:19:15;19.60;99.90
41876;DHT22;27555;50.808;4.402;2023-06-22T12:21:40;19.50;99.90
41876;DHT22;27555;50.808;4.402;2023-06-22T12:24:06;19.40;99.90
41876;DHT22;27555;50.808;4.402;2023-06-22T12:26:31;19.40;99.90
41876;DHT22;27555;50.808;4.402;2023-06-22T12:28:57;19.20;99.90
41876;DHT22;27555;50.808;4.402;2023-06-22T12:31:23;19.10;99.90
41876;DHT22;27555;50.808;4.402;2023-06-22T12:33:48;19.20;99.90
41876;DHT22;27555;50.808;4.402;2023-06-22T12:36:14;19.30;99.90
41876;DHT22;27555;50.808;4.402;2023-06-22T12:38:41;19.40;99.90
41876;DHT22;27555;50.808;4.402;2023-06-22T12:41:07;19.40;99.90
41876;DHT22;27555;50.808;4.402;2023-06-22T12:43:32;19.50;99.90
41876;DHT22;27555;50.808;4.402;2023-06-22T12:45:58;19.50;99.90
41876;DHT22;27555;50.808;4.402;2023-06-22T12:48:26;19.50;99.90
41876;DHT22;27555;50.808;4.402;2023-06-22T12:50:51;19.50;99.90
41876;DHT22;27555;50.808;4.402;2023-06-22T12:53:17;19.40;99.90
41876;DHT22;27555;50.808;4.402;2023-06-22T12:55:42;19.40;99.90
41876;DHT22;27555;50.808;4.402;2023-06-22T12:58:08;19.40;99.90
41876;DHT22;27555;50.808;4.402;2023-06-22T13:00:34;19.40;99.90
41876;DHT22;27555;50.808;4.402;2023-06-22T13:02:59;19.40;99.90
41876;DHT22;27555;50.808;4.402;2023-06-22T13:05:25;19.40;99.90
41876;DHT22;27555;50.808;4.402;2023-06-22T13:07:50;19.30;99.90
41876;DHT22;27555;50.808;4.402;2023-06-22T13:10:16;19.20;99.90
41876;DHT22;27555;50.808;4.402;2023-06-22T13:12:41;19.20;99.90
41876;DHT22;27555;50.808;4.402;2023-06-22T13:15:07;19.20;99.90
41876;DHT22;27555;50.808;4.402;2023-06-22T13:17:33;19.40;99.90
41876;DHT22;27555;50.808;4.402;2023-06-22T13:19:58;19.70;99.90
41876;DHT22;27555;50.808;4.402;2023-06-22T13:22:33;19.70;99.90
41876;DHT22;27555;50.808;4.402;2023-06-22T13:25:05;19.80;99.90
41876;DHT22;27555;50.808;4.402;2023-06-22T13:27:31;19.80;99.90
41876;DHT22;27555;50.808;4.402;2023-06-22T13:29:57;19.60;99.90
41876;DHT22;27555;50.808;4.402;2023-06-22T13:32:23;19.60;99.90
41876;DHT22;27555;50.808;4.402;2023-06-22T13:34:48;19.60;99.90
41876;DHT22;27555;50.808;4.402;2023-06-22T13:37:14;19.60;99.90
41876;DHT22;27555;50.808;4.402;2023-06-22T13:39:40;19.50;99.90
41876;DHT22;27555;50.808;4.402;2023-06-22T13:42:05;19.60;99.90
41876;DHT22;27555;50.808;4.402;2023-06-22T13:44:31;19.50;99.90
41876;DHT22;27555;50.808;4.402;2023-06-22T13:46:57;19.50;99.90
41876;DHT22;27555;50.808;4.402;2023-06-22T13:49:22;19.60;99.90
41876;DHT22;27555;50.808;4.402;2023-06-22T13:51:48;19.70;99.90
41876;DHT22;27555;50.808;4.402;2023-06-22T13:54:14;19.70;99.90
41876;DHT22;27555;50.808;4.402;2023-06-22T13:56:40;19.50;99.90
41876;DHT22;27555;50.808;4.402;2023-06-22T13:59:05;19.40;99.90
41876;DHT22;27555;50.808;4.402;2023-06-22T14:01:34;19.30;99.90
41876;DHT22;27555;50.808;4.402;2023-06-22T14:04:00;19.20;99.90
41876;DHT22;27555;50.808;4.402;2023-06-22T14:06:27;19.20;99.90
41876;DHT22;27555;50.808;4.402;2023-06-22T14:08:53;19.30;99.90
41876;DHT22;27555;50.808;4.402;2023-06-22T14:11:18;19.50;99.90
41876;DHT22;27555;50.808;4.402;2023-06-22T14:13:44;19.50;99.90
41876;DHT22;27555;50.808;4.402;2023-06-22T14:16:10;19.40;99.90
41876;DHT22;27555;50.808;4.402;2023-06-22T14:18:35;19.40;99.90
41876;DHT22;27555;50.808;4.402;2023-06-22T14:21:01;19.50;99.90
41876;DHT22;27555;50.808;4.402;2023-06-22T14:23:27;19.40;99.90
41876;DHT22;27555;50.808;4.402;2023-06-22T14:25:52;19.50;99.90
41876;DHT22;27555;50.808;4.402;2023-06-22T14:28:18;19.60;99.90
41876;DHT22;27555;50.808;4.402;2023-06-22T14:30:44;19.60;99.90
41876;DHT22;27555;50.808;4.402;2023-06-22T14:33:10;19.60;99.90
41876;DHT22;27555;50.808;4.402;2023-06-22T14:35:35;19.70;99.90
41876;DHT22;27555;50.808;4.402;2023-06-22T14:38:01;19.70;99.90
41876;DHT22;27555;50.808;4.402;2023-06-22T14:40:27;19.80;99.90
41876;DHT22;27555;50.808;4.402;2023-06-22T14:42:52;19.70;99.90
41876;DHT22;27555;50.808;4.402;2023-06-22T14:45:18;19.50;99.90
41876;DHT22;27555;50.808;4.402;2023-06-22T14:47:44;19.50;99.90
41876;DHT22;27555;50.808;4.402;2023-06-22T14:50:09;19.50;99.90
41876;DHT22;27555;50.808;4.402;2023-06-22T14:52:35;19.70;99.90
41876;DHT22;27555;50.808;4.402;2023-06-22T14:55:00;19.80;99.90
41876;DHT22;27555;50.808;4.402;2023-06-22T14:57:26;19.60;99.90
41876;DHT22;27555;50.808;4.402;2023-06-22T14:59:51;19.60;99.90
41876;DHT22;27555;50.808;4.402;2023-06-22T15:02:17;19.40;99.90
41876;DHT22;27555;50.808;4.402;2023-06-22T15:04:43;19.40;99.90
41876;DHT22;27555;50.808;4.402;2023-06-22T15:07:08;19.50;99.90
41876;DHT22;27555;50.808;4.402;2023-06-22T15:09:34;19.70;99.90
41876;DHT22;27555;50.808;4.402;2023-06-22T15:12:00;19.60;99.90
41876;DHT22;27555;50.808;4.402;2023-06-22T15:14:27;19.60;99.90
41876;DHT22;27555;50.808;4.402;2023-06-22T15:16:53;19.70;99.90
41876;DHT22;27555;50.808;4.402;2023-06-22T15:19:19;19.90;99.90
41876;DHT22;27555;50.808;4.402;2023-06-22T15:21:44;20.00;99.90
41876;DHT22;27555;50.808;4.402;2023-06-22T15:24:11;20.20;99.90
41876;DHT22;27555;50.808;4.402;2023-06-22T15:26:36;20.20;99.90
41876;DHT22;27555;50.808;4.402;2023-06-22T15:29:02;20.30;99.90
41876;DHT22;27555;50.808;4.402;2023-06-22T15:31:29;20.40;99.90
41876;DHT22;27555;50.808;4.402;2023-06-22T15:33:54;20.30;99.90
41876;DHT22;27555;50.808;4.402;2023-06-22T15:36:20;20.20;99.90
41876;DHT22;27555;50.808;4.402;2023-06-22T15:38:45;20.30;99.90